createdAt,value
2023-01-23T00:01:47.183Z,106.03
2023-01-23T00:03:48.926Z,97.53
2023-01-23T00:06:01.283Z,98.93
2023-01-23T00:08:02.993Z,105.72
2023-01-23T00:10:05.072Z,104.68
2023-01-23T00:12:07.007Z,103.68
2023-01-23T00:14:10.178Z,101.78
2023-01-23T00:16:17.909Z,99.03
2023-01-23T00:18:19.632Z,106.57
2023-01-23T00:20:21.639Z,100.78
2023-01-23T00:22:23.457Z,95.13
2023-01-23T00:24:25.225Z,97.72
2023-01-23T00:26:29.745Z,109.85
2023-01-23T00:28:31.839Z,102.57
2023-01-23T00:30:34.178Z,105.30
2023-01-23T00:32:36.006Z,98.82
2023-01-23T00:34:38.340Z,100.97
2023-01-23T00:36:42.363Z,106.43
2023-01-23T00:38:44.244Z,107.18
2023-01-23T00:40:46.090Z,108.78
2023-01-23T00:42:47.972Z,109.68
2023-01-23T00:44:49.787Z,110.43
2023-01-23T00:46:51.493Z,112.70
2023-01-23T00:48:53.391Z,111.47
2023-01-23T00:50:55.341Z,109.22
2023-01-23T00:52:57.134Z,113.20
2023-01-23T00:54:59.044Z,104.30
2023-01-23T00:57:00.883Z,102.50
2023-01-23T00:59:02.883Z,106.22
2023-01-23T01:01:04.791Z,104.95
2023-01-23T01:03:07.323Z,112.03
2023-01-23T01:05:09.604Z,110.80
2023-01-23T01:07:11.315Z,109.43
2023-01-23T01:09:13.064Z,115.85
2023-01-23T01:11:15.012Z,106.85
2023-01-23T01:13:21.556Z,114.10
2023-01-23T01:15:23.490Z,110.13
2023-01-23T01:17:25.328Z,110.63
2023-01-23T01:19:28.448Z,110.05
2023-01-23T01:21:30.510Z,113.20
2023-01-23T01:23:32.306Z,108.18
2023-01-23T01:25:34.439Z,120.32
2023-01-23T01:27:36.157Z,106.28
2023-01-23T01:29:37.965Z,116.22
2023-01-23T01:31:39.778Z,118.38
2023-01-23T01:33:43.652Z,109.53
2023-01-23T01:35:45.581Z,112.13
2023-01-23T01:37:47.945Z,118.60
2023-01-23T01:39:49.815Z,108.88
2023-01-23T01:41:51.677Z,101.47
2023-01-23T01:43:57.183Z,108.10
2023-01-23T01:46:25.418Z,107.65
2023-01-23T01:48:32.576Z,99.93
2023-01-23T01:50:35.426Z,93.57
2023-01-23T01:52:37.289Z,99.28
2023-01-23T01:54:47.173Z,86.65
2023-01-23T01:56:55.657Z,85.30
2023-01-23T01:59:00.586Z,77.25
2023-01-23T02:01:02.426Z,80.65
2023-01-23T02:03:04.342Z,85.72
2023-01-23T02:05:27.711Z,79.40
2023-01-23T02:07:41.994Z,80.10
2023-01-23T02:09:43.903Z,82.97
2023-01-23T02:11:45.664Z,83.47
2023-01-23T02:13:47.848Z,74.32
2023-01-23T02:15:50.139Z,69.00
2023-01-23T02:17:54.973Z,71.18
2023-01-23T02:20:13.425Z,70.45
2023-01-23T02:22:46.900Z,65.63
2023-01-23T02:25:06.439Z,61.90
2023-01-23T02:27:08.671Z,67.15
2023-01-23T02:29:11.678Z,70.57
2023-01-23T02:31:14.595Z,76.28
2023-01-23T02:33:19.404Z,78.78
2023-01-23T02:35:30.677Z,73.70
2023-01-23T02:37:34.746Z,72.55
2023-01-23T02:39:37.690Z,74.00
2023-01-23T02:41:42.689Z,67.95
2023-01-23T02:43:45.718Z,70.97
2023-01-23T02:45:48.082Z,68.78
2023-01-23T02:47:49.817Z,64.82
2023-01-23T02:49:51.624Z,61.70
2023-01-23T02:51:54.810Z,60.28
2023-01-23T02:53:56.570Z,66.32
2023-01-23T02:56:00.211Z,56.88
2023-01-23T02:58:20.479Z,60.80
2023-01-23T03:00:22.928Z,58.33
2023-01-23T03:02:25.040Z,59.83
2023-01-23T03:04:26.902Z,52.45
2023-01-23T03:06:28.620Z,54.22
2023-01-23T03:08:36.287Z,59.10
2023-01-23T03:10:38.151Z,60.47
2023-01-23T03:12:43.485Z,58.42
2023-01-23T03:14:45.572Z,54.97
2023-01-23T03:16:51.515Z,54.45
2023-01-23T03:18:54.731Z,53.47
2023-01-23T03:21:02.559Z,53.85
2023-01-23T03:23:04.280Z,58.42
2023-01-23T03:25:06.234Z,52.97
2023-01-23T03:27:08.330Z,58.20
2023-01-23T03:29:38.316Z,67.85
2023-01-23T03:31:40.571Z,87.57
2023-01-23T03:33:43.650Z,89.90
2023-01-23T03:35:45.755Z,88.55
2023-01-23T03:37:48.828Z,88.22
2023-01-23T03:40:09.270Z,91.90
2023-01-23T03:42:11.029Z,88.80
2023-01-23T03:44:13.136Z,87.88
2023-01-23T03:46:14.950Z,91.30
2023-01-23T03:48:16.695Z,90.15
2023-01-23T03:50:18.840Z,90.55
2023-01-23T03:52:20.715Z,88.50
2023-01-23T03:54:22.432Z,93.05
2023-01-23T03:56:24.267Z,84.03
2023-01-23T03:58:26.036Z,87.82
2023-01-23T04:00:27.906Z,80.60
2023-01-23T04:02:29.671Z,86.15
2023-01-23T04:04:33.715Z,85.70
2023-01-23T04:06:35.635Z,90.80
2023-01-23T04:08:37.465Z,93.82
2023-01-23T04:10:39.444Z,89.60
2023-01-23T04:12:43.793Z,95.47
2023-01-23T04:14:45.668Z,93.50
2023-01-23T04:16:47.751Z,93.32
2023-01-23T04:18:51.018Z,91.47
2023-01-23T04:20:53.007Z,88.25
2023-01-23T04:22:54.938Z,84.50
2023-01-23T04:24:56.681Z,83.60
2023-01-23T04:26:58.397Z,79.00
2023-01-23T04:29:00.111Z,91.05
2023-01-23T04:31:02.103Z,79.32
2023-01-23T04:33:03.903Z,74.10
2023-01-23T04:35:06.184Z,79.07
2023-01-23T04:37:07.928Z,76.65
2023-01-23T04:39:09.763Z,86.65
2023-01-23T04:41:20.582Z,80.95
2023-01-23T04:45:23.962Z,80.88
2023-01-23T04:47:25.775Z,82.90
2023-01-23T04:49:27.979Z,88.25
2023-01-23T04:51:29.682Z,83.93
2023-01-23T04:53:31.751Z,78.97
2023-01-23T04:55:34.165Z,82.78
2023-01-23T04:57:35.935Z,75.47
2023-01-23T04:59:37.690Z,80.63
2023-01-23T05:01:39.571Z,75.53
2023-01-23T05:03:41.377Z,82.00
2023-01-23T05:05:44.340Z,76.90
2023-01-23T05:07:46.103Z,83.35
2023-01-23T05:09:47.886Z,79.07
2023-01-23T05:11:49.768Z,85.05
2023-01-23T05:13:51.447Z,78.18
2023-01-23T05:15:53.322Z,70.70
2023-01-23T05:17:55.188Z,70.18
2023-01-23T05:19:56.941Z,77.15
2023-01-23T05:21:58.697Z,77.10
2023-01-23T05:24:00.570Z,67.78
2023-01-23T05:26:02.409Z,76.15
2023-01-23T05:28:04.452Z,72.53
2023-01-23T05:30:07.370Z,73.88
2023-01-23T05:32:09.189Z,66.05
2023-01-23T05:34:10.899Z,70.60
2023-01-23T05:36:12.851Z,67.95
2023-01-23T05:38:14.806Z,73.25
2023-01-23T05:40:17.357Z,68.53
2023-01-23T05:42:19.224Z,74.85
2023-01-23T05:44:20.944Z,65.47
2023-01-23T05:46:22.720Z,62.88
2023-01-23T05:48:24.567Z,63.28
2023-01-23T05:50:26.331Z,72.70
2023-01-23T05:52:28.506Z,70.05
2023-01-23T05:54:30.343Z,70.25
2023-01-23T05:56:32.155Z,60.33
2023-01-23T05:58:34.126Z,62.30
2023-01-23T06:00:36.732Z,70.03
2023-01-23T06:02:38.667Z,66.40
2023-01-23T06:04:49.362Z,66.65
2023-01-23T06:08:52.877Z,65.65
2023-01-23T06:10:54.617Z,63.17
2023-01-23T06:12:56.328Z,61.05
2023-01-23T06:14:58.004Z,63.50
2023-01-23T06:16:59.675Z,65.60
2023-01-23T06:19:01.383Z,57.42
2023-01-23T06:21:03.739Z,60.20
2023-01-23T06:23:05.892Z,63.55
2023-01-23T06:25:07.969Z,60.45
2023-01-23T06:27:09.808Z,59.65
2023-01-23T06:29:11.819Z,63.60
2023-01-23T06:31:13.596Z,65.10
2023-01-23T06:33:15.697Z,63.00
2023-01-23T06:35:17.805Z,62.92
2023-01-23T06:37:19.761Z,61.60
2023-01-23T06:39:21.516Z,65.80
2023-01-23T06:41:24.515Z,64.63
2023-01-23T06:43:26.848Z,66.40
2023-01-23T06:45:28.608Z,63.70
2023-01-23T06:47:30.339Z,58.60
2023-01-23T06:49:32.212Z,61.95
2023-01-23T06:51:34.603Z,60.97
2023-01-23T06:53:36.911Z,60.72
2023-01-23T06:55:38.723Z,60.75
2023-01-23T06:57:43.458Z,60.28
2023-01-23T06:59:45.174Z,62.33
2023-01-23T07:01:47.057Z,67.90
2023-01-23T07:03:48.939Z,63.28
2023-01-23T07:05:50.987Z,65.22
2023-01-23T07:07:52.799Z,61.55
2023-01-23T07:09:54.549Z,59.58
2023-01-23T07:11:56.420Z,62.30
2023-01-23T07:13:58.433Z,60.03
2023-01-23T07:16:00.281Z,59.90
2023-01-23T07:18:02.432Z,64.40
2023-01-23T07:20:04.500Z,65.97
2023-01-23T07:22:06.301Z,64.85
2023-01-23T07:24:08.089Z,58.08
2023-01-23T07:26:11.710Z,57.20
2023-01-23T07:28:13.947Z,65.63
2023-01-23T07:30:16.492Z,60.65
2023-01-23T07:32:18.286Z,57.83
2023-01-23T07:34:19.968Z,61.25
2023-01-23T07:36:21.664Z,62.05
2023-01-23T07:38:23.611Z,56.42
2023-01-23T07:40:25.742Z,57.92
2023-01-23T07:42:27.573Z,55.50
2023-01-23T07:44:29.327Z,52.67
2023-01-23T07:46:31.217Z,52.95
2023-01-23T07:48:33.089Z,60.92
2023-01-23T07:50:35.879Z,56.53
2023-01-23T07:52:38.000Z,53.08
2023-01-23T07:58:05.545Z,52.05
2023-01-23T08:00:08.189Z,55.97
2023-01-23T08:02:11.336Z,58.47
2023-01-23T08:04:17.935Z,57.97
2023-01-23T08:06:20.613Z,62.75
2023-01-23T08:08:22.435Z,61.28
2023-01-23T08:10:24.195Z,57.38
2023-01-23T08:12:26.018Z,58.50
2023-01-23T08:14:28.127Z,61.97
2023-01-23T08:16:29.897Z,62.83
2023-01-23T08:18:32.355Z,60.65
2023-01-23T08:20:34.556Z,60.10
2023-01-23T08:22:40.749Z,64.28
2023-01-23T08:24:55.899Z,59.92
2023-01-23T08:26:57.786Z,63.60
2023-01-23T08:29:00.219Z,61.70
2023-01-23T08:31:08.130Z,64.80
2023-01-23T08:33:09.945Z,62.78
2023-01-23T08:35:11.908Z,57.05
2023-01-23T08:37:13.637Z,61.25
2023-01-23T08:39:17.483Z,60.20
2023-01-23T08:41:19.337Z,58.42
2023-01-23T08:43:22.147Z,62.42
2023-01-23T08:45:23.955Z,61.10
2023-01-23T08:47:25.693Z,62.92
2023-01-23T08:49:27.423Z,61.33
2023-01-23T08:51:29.310Z,60.95
2023-01-23T08:53:31.875Z,70.93
2023-01-23T08:55:36.237Z,65.50
2023-01-23T08:57:37.995Z,59.08
2023-01-23T08:59:39.648Z,63.72
2023-01-23T09:01:41.407Z,69.78
2023-01-23T09:03:43.154Z,69.55
2023-01-23T09:05:44.903Z,69.68
2023-01-23T09:07:48.089Z,65.45
2023-01-23T09:09:49.866Z,63.80
2023-01-23T09:11:51.542Z,61.30
2023-01-23T09:13:54.128Z,64.25
2023-01-23T09:15:56.283Z,60.17
2023-01-23T09:17:58.162Z,61.97
2023-01-23T09:20:00.815Z,59.65
2023-01-23T09:22:02.877Z,70.82
2023-01-23T09:24:04.823Z,64.97
2023-01-23T09:26:12.109Z,59.55
2023-01-23T09:28:14.109Z,69.80
2023-01-23T09:30:16.088Z,64.57
2023-01-23T09:32:17.966Z,68.85
2023-01-23T09:34:19.887Z,61.00
2023-01-23T09:36:33.630Z,60.42
2023-01-23T09:38:43.274Z,59.72
2023-01-23T09:40:53.513Z,67.18
2023-01-23T09:42:58.958Z,61.30
2023-01-23T09:45:04.464Z,59.90
2023-01-23T09:47:20.304Z,63.95
2023-01-23T09:49:41.363Z,61.78
2023-01-23T09:52:01.249Z,64.50
2023-01-23T09:54:24.350Z,66.35
2023-01-23T09:56:35.325Z,58.92
2023-01-23T09:58:46.161Z,57.15
2023-01-23T10:00:48.882Z,68.97
2023-01-23T10:02:53.643Z,60.50
2023-01-23T10:05:02.749Z,57.25
2023-01-23T10:07:23.003Z,59.10
2023-01-23T10:09:45.993Z,55.78
2023-01-23T10:11:58.995Z,56.97
2023-01-23T10:14:26.655Z,51.40
2023-01-23T10:17:02.758Z,52.20
2023-01-23T10:19:22.430Z,56.20
2023-01-23T10:21:27.075Z,48.35
2023-01-23T10:23:40.074Z,47.22
2023-01-23T10:25:42.105Z,52.08
2023-01-23T10:27:47.892Z,48.38
2023-01-23T10:29:57.225Z,46.47
2023-01-23T10:32:01.840Z,39.53
2023-01-23T10:34:20.488Z,49.08
2023-01-23T10:37:00.426Z,43.45
2023-01-23T10:39:11.883Z,46.58
2023-01-23T10:41:15.614Z,36.17
2023-01-23T10:43:22.315Z,37.53
2023-01-23T10:45:25.457Z,39.92
2023-01-23T10:47:37.131Z,35.67
2023-01-23T10:49:45.800Z,35.33
2023-01-23T10:51:48.932Z,39.20
2023-01-23T10:54:36.621Z,33.45
2023-01-23T10:56:49.511Z,33.10
2023-01-23T10:58:56.139Z,31.45
2023-01-23T11:00:58.371Z,30.77
2023-01-23T11:03:24.836Z,30.55
2023-01-23T11:05:52.971Z,27.60
2023-01-23T11:07:56.062Z,29.45
2023-01-23T11:10:00.821Z,26.67
2023-01-23T11:12:06.563Z,27.63
2023-01-23T11:14:21.763Z,34.95
2023-01-23T11:16:24.148Z,32.78
2023-01-23T11:18:34.086Z,32.75
2023-01-23T11:20:39.014Z,32.07
2023-01-23T11:22:44.210Z,37.10
2023-01-23T11:25:01.845Z,39.72
2023-01-23T11:27:20.463Z,33.22
2023-01-23T11:29:24.472Z,30.83
2023-01-23T11:31:28.609Z,33.17
2023-01-23T11:33:52.654Z,27.63
2023-01-23T11:36:03.421Z,31.17
2023-01-23T11:40:14.147Z,25.13
2023-01-23T11:42:17.637Z,27.58
2023-01-23T11:44:23.638Z,29.30
2023-01-23T11:46:47.559Z,30.13
2023-01-23T11:49:31.380Z,28.73
2023-01-23T11:51:49.123Z,24.17
2023-01-23T11:54:14.188Z,26.50
2023-01-23T11:56:30.897Z,25.50
2023-01-23T11:58:49.034Z,25.05
2023-01-23T12:01:16.705Z,24.65
2023-01-23T12:03:32.645Z,18.42
2023-01-23T12:05:40.201Z,17.95
2023-01-23T12:07:54.117Z,18.77
2023-01-23T12:10:20.756Z,17.73
2023-01-23T12:12:45.062Z,19.80
2023-01-23T12:14:52.185Z,29.23
2023-01-23T12:17:09.217Z,32.28
2023-01-23T12:19:29.695Z,38.92
2023-01-23T12:21:56.223Z,43.97
2023-01-23T12:24:11.438Z,39.55
2023-01-23T12:26:24.791Z,37.67
2023-01-23T12:28:54.379Z,40.33
2023-01-23T12:30:56.311Z,38.97
2023-01-23T12:33:03.159Z,43.25
2023-01-23T12:35:23.914Z,41.15
2023-01-23T12:37:53.279Z,44.15
2023-01-23T12:40:14.230Z,49.80
2023-01-23T12:44:32.164Z,42.28
2023-01-23T12:46:40.303Z,41.85
2023-01-23T12:49:10.235Z,46.72
2023-01-23T12:51:32.553Z,41.65
2023-01-23T12:53:38.374Z,44.10
2023-01-23T12:55:46.065Z,42.40
2023-01-23T12:57:59.828Z,43.72
2023-01-23T13:00:21.199Z,38.72
2023-01-23T13:02:42.259Z,34.60
2023-01-23T13:05:27.644Z,37.38
2023-01-23T13:07:58.958Z,31.50
2023-01-23T13:10:52.067Z,17.48
2023-01-23T13:12:56.326Z,13.30
2023-01-23T13:15:27.766Z,19.52
2023-01-23T13:17:49.205Z,17.38
2023-01-23T13:20:09.631Z,12.45
2023-01-23T13:22:32.320Z,7.47
2023-01-23T13:25:18.012Z,7.40
2023-01-23T13:27:47.369Z,9.50
2023-01-23T13:29:50.665Z,13.70
2023-01-23T13:32:23.333Z,7.93
2023-01-23T13:34:25.546Z,7.88
2023-01-23T13:36:31.217Z,7.38
2023-01-23T13:38:39.616Z,7.60
2023-01-23T13:41:01.363Z,7.22
2023-01-23T13:43:55.050Z,7.82
2023-01-23T13:45:57.176Z,9.95
2023-01-23T14:20:23.236Z,7.88
2023-01-23T14:22:28.191Z,6.10
2023-01-23T14:24:55.048Z,3.35
2023-01-23T14:27:07.480Z,6.50
2023-01-23T14:29:23.932Z,6.07
2023-01-23T14:31:34.164Z,6.63
2023-01-23T14:33:45.353Z,4.77
2023-01-23T14:35:47.408Z,8.50
2023-01-23T14:37:50.158Z,5.72
2023-01-23T14:39:53.647Z,6.28
2023-01-23T14:42:02.367Z,6.03
2023-01-23T14:44:05.168Z,4.60
2023-01-23T14:46:18.250Z,6.15
2023-01-23T14:48:21.506Z,7.65
2023-01-23T14:50:26.773Z,3.67
2023-01-23T14:52:30.928Z,4.57
2023-01-23T14:54:34.653Z,7.35
2023-01-23T14:56:39.358Z,9.55
2023-01-23T14:58:41.666Z,10.80
2023-01-23T15:00:46.168Z,4.10
2023-01-23T15:02:54.464Z,6.85
2023-01-23T15:05:19.719Z,4.07
2023-01-23T15:07:21.658Z,10.65
2023-01-23T15:09:45.961Z,10.77
2023-01-23T15:11:48.238Z,6.40
2023-01-23T15:13:55.158Z,6.50
2023-01-23T15:15:59.965Z,5.68
2023-01-23T15:18:05.841Z,7.35
2023-01-23T15:20:33.083Z,8.52
2023-01-23T15:22:35.909Z,11.98
2023-01-23T15:24:37.692Z,6.65
2023-01-23T15:26:42.023Z,6.45
2023-01-23T15:29:00.464Z,9.60
2023-01-23T15:31:02.482Z,9.57
2023-01-23T15:33:22.562Z,13.13
2023-01-23T15:35:25.055Z,13.00
2023-01-23T15:37:28.107Z,10.65
2023-01-23T15:39:34.631Z,8.60
2023-01-23T15:42:05.528Z,10.45
2023-01-23T15:44:18.628Z,7.53
2023-01-23T15:46:20.501Z,10.07
2023-01-23T15:48:22.486Z,14.63
2023-01-23T15:50:24.547Z,11.43
2023-01-23T15:52:30.037Z,14.30
2023-01-23T15:54:49.792Z,13.63
2023-01-23T15:57:05.398Z,8.65
2023-01-23T15:59:16.415Z,11.38
2023-01-23T16:01:18.344Z,12.10
2023-01-23T16:03:20.263Z,8.35
2023-01-23T16:05:27.018Z,10.98
2023-01-23T16:07:34.953Z,10.15
2023-01-23T16:09:39.518Z,9.57
2023-01-23T16:11:41.668Z,9.98
2023-01-23T16:13:43.505Z,12.23
2023-01-23T16:15:45.283Z,13.50
2023-01-23T16:17:47.854Z,9.60
2023-01-23T16:19:50.882Z,9.18
2023-01-23T16:22:03.971Z,10.65
2023-01-23T16:24:07.165Z,10.63
2023-01-23T16:26:21.519Z,11.57
2023-01-23T16:28:26.668Z,8.52
2023-01-23T16:30:28.705Z,11.25
2023-01-23T16:32:30.560Z,15.38
2023-01-23T16:34:32.580Z,11.77
2023-01-23T16:36:34.388Z,10.23
2023-01-23T16:38:36.249Z,10.40
2023-01-23T16:40:38.145Z,10.15
2023-01-23T16:42:40.742Z,7.07
2023-01-23T16:44:47.185Z,8.00
2023-01-23T16:46:49.786Z,9.90
2023-01-23T16:48:54.864Z,14.93
2023-01-23T16:51:05.314Z,7.45
2023-01-23T16:53:23.250Z,13.63
2023-01-23T16:55:30.326Z,8.13
2023-01-23T16:57:33.426Z,7.50
2023-01-23T16:59:37.917Z,10.82
2023-01-23T17:01:41.935Z,8.30
2023-01-23T17:03:44.963Z,9.80
2023-01-23T17:05:46.967Z,10.95
2023-01-23T17:07:48.944Z,11.38
2023-01-23T17:09:51.936Z,10.13
2023-01-23T17:11:55.954Z,10.98
2023-01-23T17:14:00.942Z,11.55
2023-01-23T17:16:07.388Z,8.45
2023-01-23T17:18:27.281Z,10.45
2023-01-23T17:20:29.129Z,7.43
2023-01-23T17:22:37.232Z,8.13
2023-01-23T17:24:48.959Z,8.88
2023-01-23T17:26:50.688Z,12.85
2023-01-23T17:28:52.626Z,9.82
2023-01-23T17:30:55.717Z,10.80
2023-01-23T17:32:58.341Z,9.27
2023-01-23T17:35:03.191Z,10.75
2023-01-23T17:37:13.255Z,11.93
2023-01-23T17:39:15.106Z,7.38
2023-01-23T17:41:17.746Z,10.35
2023-01-23T17:43:21.074Z,12.30
2023-01-23T17:45:24.758Z,8.63
2023-01-23T17:47:34.889Z,10.10
2023-01-23T17:49:36.892Z,7.28
2023-01-23T17:51:38.678Z,9.60
2023-01-23T17:53:42.220Z,8.57
2023-01-23T17:55:48.154Z,11.73
2023-01-23T17:57:50.533Z,13.35
2023-01-23T17:59:55.486Z,10.20
2023-01-23T18:01:58.500Z,10.77
2023-01-23T18:04:00.299Z,11.13
2023-01-23T18:06:02.159Z,11.45
2023-01-23T18:08:04.187Z,14.60
2023-01-23T18:10:08.202Z,14.00
2023-01-23T18:12:20.123Z,12.30
2023-01-23T18:14:31.299Z,10.38
2023-01-23T18:16:40.187Z,13.02
2023-01-23T18:18:43.310Z,16.05
2023-01-23T18:20:45.298Z,10.23
2023-01-23T18:22:47.703Z,11.88
2023-01-23T18:24:55.292Z,10.43
2023-01-23T18:27:05.177Z,18.52
2023-01-23T18:29:26.428Z,13.85
2023-01-23T18:31:41.099Z,11.95
2023-01-23T18:33:52.317Z,15.95
2023-01-23T18:36:13.039Z,13.13
2023-01-23T18:38:28.911Z,16.85
2023-01-23T18:40:43.349Z,17.08
2023-01-23T18:43:30.442Z,11.70
2023-01-23T18:45:33.236Z,10.38
2023-01-23T18:47:35.351Z,14.70
2023-01-23T18:49:37.710Z,14.73
2023-01-23T18:51:49.818Z,11.93
2023-01-23T18:54:16.117Z,14.60
2023-01-23T18:56:43.264Z,14.98
2023-01-23T18:58:52.348Z,15.50
2023-01-23T19:01:22.639Z,9.57
2023-01-23T19:03:38.691Z,14.75
2023-01-23T19:05:40.811Z,12.85
2023-01-23T19:07:43.699Z,10.98
2023-01-23T19:09:46.976Z,11.23
2023-01-23T19:12:34.521Z,9.68
2023-01-23T19:14:38.939Z,16.33
2023-01-23T19:16:54.121Z,15.27
2023-01-23T19:19:10.719Z,16.98
2023-01-23T19:21:23.729Z,14.98
2023-01-23T19:23:34.714Z,15.05
2023-01-23T19:27:38.432Z,10.77
2023-01-23T19:29:40.502Z,13.48
2023-01-23T19:31:47.475Z,12.85
2023-01-23T19:33:59.522Z,13.00
2023-01-23T19:36:02.009Z,14.60
2023-01-23T19:38:03.875Z,11.43
2023-01-23T19:40:10.638Z,15.88
2023-01-23T19:42:14.796Z,12.80
2023-01-23T19:44:19.107Z,11.80
2023-01-23T19:46:22.454Z,13.88
2023-01-23T19:48:24.329Z,13.75
2023-01-23T19:50:26.144Z,17.75
2023-01-23T19:52:27.933Z,19.45
2023-01-23T19:54:29.674Z,17.60
2023-01-23T19:56:31.463Z,20.80
2023-01-23T19:58:33.392Z,18.15
2023-01-23T20:00:36.375Z,20.85
2023-01-23T20:02:38.151Z,16.73
2023-01-23T20:04:39.884Z,15.93
2023-01-23T20:06:42.980Z,14.60
2023-01-23T20:08:44.918Z,18.40
2023-01-23T20:10:46.626Z,16.95
2023-01-23T20:12:52.265Z,18.15
2023-01-23T20:14:56.992Z,17.45
2023-01-23T20:16:58.976Z,18.00
2023-01-23T20:19:00.899Z,18.15
2023-01-23T20:21:02.738Z,17.80
2023-01-23T20:23:04.714Z,15.40
2023-01-23T20:25:08.882Z,16.13
2023-01-23T20:27:10.704Z,16.67
2023-01-23T20:29:12.567Z,17.30
2023-01-23T20:31:14.691Z,15.45
2023-01-23T20:33:16.529Z,22.60
2023-01-23T20:35:18.426Z,16.67
2023-01-23T20:37:20.301Z,16.30
2023-01-23T20:39:22.114Z,14.82
2023-01-23T20:41:24.025Z,19.85
2023-01-23T20:43:25.753Z,16.33
2023-01-23T20:45:27.530Z,13.13
2023-01-23T20:47:29.499Z,20.48
2023-01-23T20:49:31.392Z,14.43
2023-01-23T20:51:33.304Z,16.25
2023-01-23T20:53:35.878Z,19.10
2023-01-23T20:55:37.658Z,17.13
2023-01-23T20:57:57.980Z,14.38
2023-01-23T21:01:10.789Z,14.43
2023-01-23T21:03:12.687Z,12.52
2023-01-23T21:05:14.408Z,15.55
2023-01-23T21:07:17.011Z,13.52
2023-01-23T21:09:18.850Z,14.80
2023-01-23T21:11:21.109Z,16.52
2023-01-23T21:13:22.799Z,19.58
2023-01-23T21:15:24.658Z,15.68
2023-01-23T21:17:27.332Z,15.50
2023-01-23T21:19:29.017Z,18.17
2023-01-23T21:21:30.760Z,15.88
2023-01-23T21:23:33.159Z,14.90
2023-01-23T21:25:36.029Z,15.63
2023-01-23T21:27:37.709Z,16.10
2023-01-23T21:29:39.581Z,16.42
2023-01-23T21:31:42.018Z,15.75
2023-01-23T21:33:44.959Z,15.73
2023-01-23T21:35:50.924Z,12.77
2023-01-23T21:37:52.547Z,13.15
2023-01-23T21:39:54.243Z,14.65
2023-01-23T21:41:55.896Z,14.80
2023-01-23T21:43:57.605Z,13.98
2023-01-23T21:45:59.447Z,14.50
2023-01-23T21:48:01.195Z,13.65
2023-01-23T21:50:02.934Z,17.25
2023-01-23T21:52:04.848Z,14.73
2023-01-23T21:54:06.680Z,18.00
2023-01-23T21:56:09.859Z,17.52
2023-01-23T21:58:11.607Z,16.73
2023-01-23T22:00:32.034Z,15.90
2023-01-23T22:02:33.840Z,15.48
2023-01-23T22:04:36.144Z,16.00
2023-01-23T22:06:40.512Z,14.63
2023-01-23T22:08:42.602Z,16.60
2023-01-23T22:10:44.484Z,14.90
2023-01-23T22:12:46.194Z,16.05
2023-01-23T22:14:55.864Z,17.13
2023-01-23T22:16:57.718Z,16.98
2023-01-23T22:19:14.662Z,19.67
2023-01-23T22:21:21.044Z,21.05
2023-01-23T22:23:47.659Z,13.82
2023-01-23T22:25:50.593Z,14.60
2023-01-23T22:28:16.441Z,16.00
2023-01-23T22:30:18.265Z,16.73
2023-01-23T22:32:20.507Z,15.38
2023-01-23T22:34:22.685Z,18.85
2023-01-23T22:36:24.755Z,19.42
2023-01-23T22:38:27.018Z,16.55
2023-01-23T22:40:29.238Z,21.25
2023-01-23T22:42:31.374Z,22.88
2023-01-23T22:44:33.661Z,18.45
2023-01-23T22:46:35.848Z,15.32
2023-01-23T22:48:39.188Z,17.77
2023-01-23T22:50:41.521Z,16.38
2023-01-23T22:52:43.902Z,16.30
2023-01-23T22:54:53.980Z,16.10
2023-01-23T22:56:55.616Z,21.33
2023-01-23T22:58:57.433Z,18.17
2023-01-23T23:00:59.080Z,15.98
2023-01-23T23:03:00.741Z,18.70
2023-01-23T23:05:02.443Z,16.52
2023-01-23T23:07:04.312Z,16.00
2023-01-23T23:09:06.032Z,15.43
2023-01-23T23:11:10.827Z,14.48
2023-01-23T23:13:12.517Z,17.15
2023-01-23T23:15:15.997Z,15.45
2023-01-23T23:17:18.310Z,18.63
2023-01-23T23:19:19.978Z,18.13
2023-01-23T23:21:25.333Z,14.32
2023-01-23T23:23:27.651Z,16.50
2023-01-23T23:25:29.371Z,15.30
2023-01-23T23:27:31.009Z,17.48
2023-01-23T23:29:32.874Z,16.65
2023-01-23T23:31:34.955Z,15.27
2023-01-23T23:33:37.178Z,14.50
2023-01-23T23:35:38.897Z,13.23
2023-01-23T23:37:40.678Z,16.58
2023-01-23T23:39:42.399Z,16.23
2023-01-23T23:41:44.066Z,14.63
2023-01-23T23:43:45.913Z,14.68
2023-01-23T23:45:52.168Z,18.27
2023-01-23T23:47:55.106Z,15.13
2023-01-23T23:49:56.817Z,16.02
2023-01-23T23:51:58.549Z,15.63
2023-01-23T23:54:00.233Z,16.25
2023-01-23T23:56:02.319Z,15.77
2023-01-23T23:58:04.111Z,16.10
